Time;durP1;ratioP1;P1;durP2;ratioP2;P2;SDS_P1;SDS_P2;PMS_P1;PMS_P2;Temp;Humidity;BMP_temperature;BMP_pressure;BME280_temperature;BME280_humidity;BME280_pressure;Samples;Min_cycle;Max_cycle;Signal;HPM_P1;HPM_P2
2023/02/18 00:01:18;;;;;;;41.50;28.17;;;;;;;9.87;100.00;102092.50;5080281;28;20028;-82
2023/02/18 00:03:44;;;;;;;44.55;29.05;;;;;;;9.86;100.00;102088.06;5084366;28;20050;-83
2023/02/18 00:06:21;;;;;;;44.05;28.80;;;;;;;9.86;100.00;102090.69;5082296;28;20028;-82
2023/02/18 00:08:47;;;;;;;45.40;30.00;;;;;;;9.86;100.00;102088.97;5084695;28;20371;-82
2023/02/18 00:11:14;;;;;;;43.33;28.70;;;;;;;9.89;100.00;102085.53;5081875;28;20032;-81
2023/02/18 00:13:39;;;;;;;44.65;29.27;;;;;;;9.94;100.00;102087.41;5083554;28;20356;-84
2023/02/18 00:16:08;;;;;;;45.78;30.60;;;;;;;9.90;100.00;102089.94;5081767;28;20053;-83
2023/02/18 00:18:33;;;;;;;46.30;29.70;;;;;;;9.92;100.00;102089.13;5082421;28;20499;-83
2023/02/18 00:20:59;;;;;;;45.88;30.65;;;;;;;9.93;100.00;102083.00;5083765;28;20036;-86
2023/02/18 00:23:25;;;;;;;44.22;29.67;;;;;;;9.92;100.00;102083.84;5081326;28;20048;-82
2023/02/18 00:26:01;;;;;;;45.70;29.02;;;;;;;9.96;100.00;102079.56;5084216;28;20031;-81
2023/02/18 00:28:27;;;;;;;44.60;29.73;;;;;;;9.94;100.00;102078.59;5081624;28;20028;-83
2023/02/18 00:30:52;;;;;;;44.90;30.83;;;;;;;9.93;100.00;102072.44;5084212;28;20024;-82
2023/02/18 00:33:17;;;;;;;45.03;29.02;;;;;;;9.93;100.00;102076.81;5080743;28;20032;-83
2023/02/18 00:35:43;;;;;;;44.67;28.10;;;;;;;9.90;100.00;102082.00;5083761;28;20081;-82
2023/02/18 00:38:08;;;;;;;44.42;28.98;;;;;;;9.93;100.00;102063.59;5082029;28;20028;-83
2023/02/18 00:40:37;;;;;;;46.67;30.25;;;;;;;9.93;100.00;102060.97;5082075;28;20021;-82
2023/02/18 00:43:02;;;;;;;44.58;30.02;;;;;;;9.92;100.00;102061.84;5082937;28;20030;-82
2023/02/18 00:45:27;;;;;;;45.85;30.25;;;;;;;9.92;100.00;102048.63;5081342;28;20029;-82
2023/02/18 00:47:53;;;;;;;46.53;30.73;;;;;;;9.95;100.00;102051.34;5082876;28;20453;-81
2023/02/18 00:50:18;;;;;;;43.47;28.25;;;;;;;9.91;100.00;102042.44;5080983;28;20486;-83
2023/02/18 00:52:43;;;;;;;44.75;29.40;;;;;;;9.92;100.00;102048.63;5083305;28;20410;-85
2023/02/18 00:55:09;;;;;;;45.83;29.23;;;;;;;9.91;100.00;102036.25;5080650;28;20032;-82
2023/02/18 00:57:34;;;;;;;46.03;31.08;;;;;;;9.86;100.00;102038.78;5082428;28;20123;-82
2023/02/18 00:59:59;;;;;;;47.08;31.50;;;;;;;9.87;100.00;102039.66;5083176;28;20032;-83
2023/02/18 01:02:25;;;;;;;47.67;32.15;;;;;;;9.88;100.00;102039.72;5079732;28;20123;-82
2023/02/18 01:04:50;;;;;;;49.63;32.05;;;;;;;9.87;100.00;102042.31;5084203;28;20029;-86
2023/02/18 01:07:16;;;;;;;48.83;33.72;;;;;;;9.87;100.00;102031.75;5080982;28;20017;-84
2023/02/18 01:09:41;;;;;;;47.90;31.38;;;;;;;9.86;100.00;102033.50;5082917;28;20029;-77
2023/02/18 01:12:06;;;;;;;47.65;30.33;;;;;;;9.85;100.00;102041.41;5081939;28;20027;-78
2023/02/18 01:14:32;;;;;;;48.05;30.55;;;;;;;9.82;100.00;102030.75;5081444;28;20032;-77
2023/02/18 01:16:57;;;;;;;44.35;27.40;;;;;;;9.86;100.00;102036.16;5083366;28;20382;-78
2023/02/18 01:19:22;;;;;;;48.97;31.25;;;;;;;9.79;100.00;102026.28;5080238;28;20028;-78
2023/02/18 01:21:48;;;;;;;47.08;28.92;;;;;;;9.75;100.00;102030.56;5083846;28;20050;-78
2023/02/18 01:24:14;;;;;;;46.72;28.65;;;;;;;9.67;100.00;102018.94;5081735;28;20029;-79
2023/02/18 01:26:39;;;;;;;47.47;29.20;;;;;;;9.64;100.00;102008.28;5086044;28;20510;-79
2023/02/18 01:29:04;;;;;;;45.00;28.08;;;;;;;9.65;100.00;102022.38;5085759;28;20028;-77
2023/02/18 01:31:30;;;;;;;45.30;26.40;;;;;;;9.63;100.00;102022.34;5085000;28;20559;-78
2023/02/18 01:33:55;;;;;;;46.60;27.15;;;;;;;9.62;100.00;102011.72;5086929;28;20074;-77
2023/02/18 01:36:20;;;;;;;43.53;26.17;;;;;;;9.59;100.00;102026.63;5083780;28;20028;-77
2023/02/18 01:38:46;;;;;;;42.08;25.17;;;;;;;9.52;100.00;102007.94;5085711;28;20028;-77
2023/02/18 01:41:11;;;;;;;40.92;22.83;;;;;;;9.51;100.00;102004.41;5084507;28;20046;-77
2023/02/18 01:43:37;;;;;;;40.22;22.70;;;;;;;9.54;100.00;102008.91;5085609;28;20028;-79
2023/02/18 01:46:19;;;;;;;38.70;22.10;;;;;;;9.50;100.00;102004.38;5085674;28;20360;-77
2023/02/18 01:48:44;;;;;;;38.42;21.92;;;;;;;9.45;100.00;102008.63;5086472;28;20031;-79
2023/02/18 01:51:12;;;;;;;39.63;22.33;;;;;;;9.42;100.00;101998.88;5084402;28;20457;-77
2023/02/18 01:53:52;;;;;;;39.40;21.77;;;;;;;9.40;100.00;102012.03;5085519;28;20070;-77
2023/02/18 01:56:46;;;;;;;40.13;22.70;;;;;;;9.37;100.00;102016.34;5083457;28;20039;-78
2023/02/18 01:59:25;;;;;;;39.10;21.65;;;;;;;9.39;100.00;102002.34;5085027;28;20147;-78
2023/02/18 02:01:51;;;;;;;38.40;21.08;;;;;;;9.35;100.00;101999.56;5083541;28;20029;-79
2023/02/18 02:04:17;;;;;;;40.30;22.73;;;;;;;9.27;100.00;102001.97;5086347;28;20110;-79
2023/02/18 02:06:42;;;;;;;40.28;22.88;;;;;;;9.23;100.00;101992.19;5084006;28;20486;-78
2023/02/18 02:09:12;;;;;;;40.92;22.10;;;;;;;9.20;100.00;102000.03;5085236;28;20032;-77
2023/02/18 02:12:14;;;;;;;41.67;22.23;;;;;;;9.15;100.00;101997.25;5084575;28;20024;-79
2023/02/18 02:15:01;;;;;;;43.17;22.65;;;;;;;9.16;100.00;101995.50;5085710;28;20107;-78
2023/02/18 02:18:03;;;;;;;45.67;24.10;;;;;;;9.08;100.00;101996.19;5085928;28;20110;-78
2023/02/18 02:20:44;;;;;;;42.78;23.40;;;;;;;9.12;100.00;101991.00;5083593;28;20098;-78
2023/02/18 02:23:55;;;;;;;46.10;24.63;;;;;;;9.07;100.00;101978.59;5084162;28;20032;-78
2023/02/18 02:26:26;;;;;;;44.45;24.33;;;;;;;9.12;100.00;101968.16;5082892;28;20028;-77
2023/02/18 02:29:24;;;;;;;45.78;24.15;;;;;;;9.08;100.00;101975.06;5082770;28;20070;-77
2023/02/18 02:32:19;;;;;;;45.63;25.83;;;;;;;9.08;100.00;101961.88;5082714;28;20029;-78
2023/02/18 02:34:59;;;;;;;47.65;24.70;;;;;;;9.05;100.00;101956.53;5085439;28;20030;-78
2023/02/18 02:37:43;;;;;;;46.05;24.75;;;;;;;9.04;100.00;101949.47;5082564;28;20024;-78
2023/02/18 02:40:39;;;;;;;44.95;24.58;;;;;;;9.03;100.00;101955.59;5083902;28;20064;-77
2023/02/18 02:43:16;;;;;;;44.42;25.00;;;;;;;9.05;100.00;101945.09;5085471;28;20394;-78
2023/02/18 02:45:48;;;;;;;44.80;25.20;;;;;;;9.05;100.00;101948.63;5085120;28;20058;-77
2023/02/18 02:48:33;;;;;;;43.60;23.48;;;;;;;9.05;100.00;101939.81;5083105;28;20030;-77
2023/02/18 02:50:58;;;;;;;41.85;23.65;;;;;;;9.08;100.00;101930.22;5082824;28;20090;-77
2023/02/18 02:53:28;;;;;;;41.22;24.08;;;;;;;9.10;100.00;101937.31;5085809;28;20543;-77
2023/02/18 02:55:55;;;;;;;41.85;23.13;;;;;;;9.10;100.00;101930.31;5082458;28;20528;-77
2023/02/18 02:58:21;;;;;;;40.72;22.65;;;;;;;9.07;100.00;101925.81;5082055;28;20032;-78
2023/02/18 03:01:01;;;;;;;39.03;22.13;;;;;;;9.04;100.00;101928.38;5085185;28;20039;-78
2023/02/18 03:03:33;;;;;;;38.58;21.23;;;;;;;9.00;100.00;101930.88;5082320;28;20048;-78
2023/02/18 03:06:53;;;;;;;37.58;21.38;;;;;;;9.01;100.00;101917.75;5085073;28;20036;-78
2023/02/18 03:09:37;;;;;;;35.83;19.05;;;;;;;8.99;100.00;101914.16;5001496;28;20049;-78
2023/02/18 03:12:12;;;;;;;35.45;17.98;;;;;;;8.98;100.00;101914.13;5077236;28;20490;-79
2023/02/18 03:14:43;;;;;;;34.92;18.77;;;;;;;8.91;100.00;101910.41;5083492;28;20500;-78
2023/02/18 03:17:25;;;;;;;33.33;16.63;;;;;;;8.91;100.00;101905.13;5084637;28;20123;-82
2023/02/18 03:20:22;;;;;;;32.70;15.75;;;;;;;8.91;100.00;101894.56;5082205;28;20020;-83
2023/02/18 03:22:50;;;;;;;34.67;15.95;;;;;;;8.89;100.00;101889.25;5084541;28;20046;-82
2023/02/18 03:25:17;;;;;;;30.85;14.02;;;;;;;8.88;100.00;101871.69;5082577;28;20029;-82
2023/02/18 03:27:44;;;;;;;30.98;14.27;;;;;;;8.89;100.00;101869.94;5084098;28;20074;-82
2023/02/18 03:30:16;;;;;;;29.00;13.70;;;;;;;8.90;100.00;101853.25;5083044;28;20074;-82
2023/02/18 03:32:42;;;;;;;26.83;11.70;;;;;;;8.90;100.00;101855.91;5084373;28;20388;-82
2023/02/18 03:35:12;;;;;;;27.85;12.25;;;;;;;8.90;100.00;101853.25;5083410;28;20307;-83
2023/02/18 03:37:46;;;;;;;26.13;10.65;;;;;;;8.89;100.00;101854.09;5083460;28;20078;-82
2023/02/18 03:40:12;;;;;;;28.13;11.40;;;;;;;8.86;100.00;101849.63;5082780;28;20026;-82
2023/02/18 03:42:37;;;;;;;26.98;10.90;;;;;;;8.85;100.00;101845.22;5082468;28;20124;-82
2023/02/18 03:45:03;;;;;;;25.45;10.25;;;;;;;8.89;100.00;101838.28;5083970;28;20115;-82
2023/02/18 03:47:29;;;;;;;24.00;9.10;;;;;;;8.86;100.00;101836.44;5081835;28;20037;-81
2023/02/18 03:49:54;;;;;;;24.98;9.48;;;;;;;8.83;100.00;101836.38;5085173;28;20125;-82
2023/02/18 03:52:20;;;;;;;22.95;8.40;;;;;;;8.84;100.00;101835.53;5081556;28;20372;-81
2023/02/18 03:54:45;;;;;;;23.15;8.02;;;;;;;8.83;100.00;101840.75;5084287;28;20064;-80
2023/02/18 03:57:10;;;;;;;22.08;7.55;;;;;;;8.83;100.00;101828.47;5082753;28;20028;-82
2023/02/18 03:59:36;;;;;;;21.40;7.13;;;;;;;8.86;100.00;101835.56;5082609;28;20033;-81
2023/02/18 04:02:01;;;;;;;20.95;6.45;;;;;;;8.85;100.00;101841.69;5083997;28;20496;-81
2023/02/18 04:04:27;;;;;;;20.73;6.35;;;;;;;8.84;100.00;101829.34;5080028;28;20032;-82
2023/02/18 04:06:52;;;;;;;21.33;7.50;;;;;;;8.81;100.00;101823.97;5083220;28;20032;-79
2023/02/18 04:09:18;;;;;;;20.90;6.80;;;;;;;8.79;100.00;101817.78;5080139;28;20399;-82
2023/02/18 04:11:43;;;;;;;19.77;6.15;;;;;;;8.85;100.00;101820.59;5083410;28;20112;-81
2023/02/18 04:14:12;;;;;;;20.10;6.25;;;;;;;8.82;100.00;101808.19;5082527;28;20031;-81
2023/02/18 04:16:37;;;;;;;20.67;6.25;;;;;;;8.78;100.00;101801.09;5082899;28;20052;-81
2023/02/18 04:19:02;;;;;;;19.58;5.70;;;;;;;8.76;100.00;101809.81;5083280;28;20062;-82
2023/02/18 04:21:28;;;;;;;19.00;5.57;;;;;;;8.78;100.00;101813.34;5081256;28;20035;-81
2023/02/18 04:23:53;;;;;;;19.00;5.60;;;;;;;8.80;100.00;101803.75;5084667;28;20049;-82
2023/02/18 04:26:19;;;;;;;19.10;5.30;;;;;;;8.75;100.00;101814.16;5081136;28;20119;-81
2023/02/18 04:28:44;;;;;;;18.80;5.22;;;;;;;8.76;100.00;101802.78;5083276;28;20089;-81
2023/02/18 04:31:10;;;;;;;18.95;5.05;;;;;;;8.77;100.00;101808.97;5082388;28;20111;-82
2023/02/18 04:33:35;;;;;;;19.05;5.53;;;;;;;8.77;100.00;101803.69;5082211;28;20034;-81
2023/02/18 04:36:01;;;;;;;19.55;5.50;;;;;;;8.73;100.00;101805.31;5083385;28;20604;-81
2023/02/18 04:38:26;;;;;;;20.05;5.53;;;;;;;8.71;100.00;101810.56;5079721;28;20036;-82
2023/02/18 04:40:51;;;;;;;19.13;5.43;;;;;;;8.73;100.00;101816.75;5084062;28;20029;-82
2023/02/18 04:43:17;;;;;;;18.95;5.18;;;;;;;8.72;100.00;101809.72;5081335;28;20140;-81
2023/02/18 04:45:42;;;;;;;18.85;4.95;;;;;;;8.71;100.00;101807.94;5082924;28;20056;-81
2023/02/18 04:48:08;;;;;;;18.77;5.00;;;;;;;8.68;100.00;101814.88;5082632;28;20028;-82
2023/02/18 04:50:33;;;;;;;18.77;4.85;;;;;;;8.71;100.00;101801.78;5081837;28;20029;-81
2023/02/18 04:53:00;;;;;;;17.67;4.95;;;;;;;8.70;100.00;101799.97;5083648;28;20383;-82
2023/02/18 04:55:25;;;;;;;18.83;4.85;;;;;;;8.73;100.00;101806.22;5080932;28;20071;-82
2023/02/18 04:57:51;;;;;;;18.55;5.07;;;;;;;8.69;100.00;101801.72;5081220;28;20074;-81
2023/02/18 05:00:19;;;;;;;18.88;5.32;;;;;;;8.69;100.00;101795.53;5086353;28;20028;-82
2023/02/18 05:02:45;;;;;;;18.90;5.30;;;;;;;8.65;100.00;101802.50;5085843;28;20023;-81
2023/02/18 05:05:11;;;;;;;18.60;5.40;;;;;;;8.65;100.00;101784.03;5086958;28;20143;-82
2023/02/18 05:07:36;;;;;;;18.33;5.05;;;;;;;8.69;100.00;101779.72;5086790;28;20099;-81
2023/02/18 05:10:02;;;;;;;17.88;4.88;;;;;;;8.66;100.00;101772.63;5085550;28;20025;-82
2023/02/18 05:12:28;;;;;;;18.90;5.18;;;;;;;8.64;100.00;101784.88;5088031;28;20080;-82
2023/02/18 05:14:53;;;;;;;18.38;5.20;;;;;;;8.64;100.00;101778.72;5083378;28;20052;-80
2023/02/18 05:17:18;;;;;;;17.95;5.07;;;;;;;8.64;100.00;101781.38;5087829;28;20032;-82
2023/02/18 05:19:44;;;;;;;18.48;5.15;;;;;;;8.64;100.00;101776.97;5084243;28;20028;-82
2023/02/18 05:22:09;;;;;;;18.95;5.60;;;;;;;8.63;100.00;101771.66;5071340;28;20040;-81
2023/02/18 05:24:35;;;;;;;18.33;5.10;;;;;;;8.62;100.00;101768.16;5086920;28;20024;-82
2023/02/18 05:27:00;;;;;;;18.58;5.32;;;;;;;8.63;100.00;101754.09;5085330;28;20036;-82
2023/02/18 05:29:25;;;;;;;18.23;4.93;;;;;;;8.60;100.00;101761.94;5069956;28;20463;-82
2023/02/18 05:31:51;;;;;;;17.70;4.90;;;;;;;8.64;100.00;101766.44;5084681;28;20213;-82
2023/02/18 05:34:16;;;;;;;17.63;4.80;;;;;;;8.58;100.00;101753.09;5087227;28;20060;-82
2023/02/18 05:36:42;;;;;;;17.98;5.03;;;;;;;8.59;100.00;101752.25;5085577;28;20103;-82
2023/02/18 05:39:07;;;;;;;18.40;5.15;;;;;;;8.59;100.00;101757.53;5086346;28;20025;-82
2023/02/18 05:41:33;;;;;;;18.40;5.32;;;;;;;8.59;100.00;101760.16;5086692;28;20103;-82
2023/02/18 05:46:42;;;;;;;19.98;5.95;;;;;;;8.56;100.00;101770.59;5085128;28;20047;-81
2023/02/18 05:49:07;;;;;;;18.30;5.47;;;;;;;8.57;100.00;101766.22;5085148;28;20028;-81
2023/02/18 05:51:33;;;;;;;19.80;5.90;;;;;;;8.55;100.00;101758.28;5085913;28;20047;-82
2023/02/18 05:53:58;;;;;;;20.80;6.85;;;;;;;8.59;100.00;101764.53;5083646;28;20102;-81
2023/02/18 05:56:23;;;;;;;21.48;7.05;;;;;;;8.58;100.00;101763.63;5087003;28;20532;-78
2023/02/18 05:58:49;;;;;;;21.90;7.30;;;;;;;8.57;100.00;101751.31;5083659;28;20040;-81
2023/02/18 06:01:14;;;;;;;22.45;8.27;;;;;;;8.58;100.00;101747.81;5085991;28;20055;-81
2023/02/18 06:03:39;;;;;;;23.17;8.63;;;;;;;8.57;100.00;101761.84;5084887;28;20032;-81
2023/02/18 06:06:05;;;;;;;24.27;9.02;;;;;;;8.58;100.00;101732.00;5084411;28;20387;-81
2023/02/18 06:08:31;;;;;;;24.55;9.52;;;;;;;8.58;100.00;101723.19;5086075;28;20036;-82
2023/02/18 06:10:56;;;;;;;24.98;10.13;;;;;;;8.56;100.00;101746.88;5082488;28;20340;-81
2023/02/18 06:13:21;;;;;;;24.30;9.30;;;;;;;8.56;100.00;101731.06;5086090;28;20021;-81
2023/02/18 06:15:50;;;;;;;25.17;9.93;;;;;;;8.54;100.00;101732.78;5068158;28;20028;-81
2023/02/18 06:18:15;;;;;;;25.80;10.80;;;;;;;8.55;100.00;101731.94;5083707;28;20378;-81
2023/02/18 06:20:40;;;;;;;26.80;11.25;;;;;;;8.47;100.00;101720.28;5084860;28;20025;-81
2023/02/18 06:23:06;;;;;;;26.67;10.85;;;;;;;8.51;100.00;101740.59;5085285;28;20459;-81
2023/02/18 06:25:31;;;;;;;27.70;12.23;;;;;;;8.53;100.00;101733.63;5083494;28;20074;-81
2023/02/18 06:27:57;;;;;;;28.33;11.95;;;;;;;8.53;100.00;101723.06;5086280;28;20035;-77
2023/02/18 06:30:22;;;;;;;28.45;12.63;;;;;;;8.51;100.00;101716.88;5083066;28;20032;-77
2023/02/18 06:32:47;;;;;;;29.52;13.00;;;;;;;8.50;100.00;101738.81;5085546;28;20111;-77
2023/02/18 06:35:13;;;;;;;30.63;14.73;;;;;;;8.48;100.00;101727.34;5083891;28;20387;-77
2023/02/18 06:37:38;;;;;;;32.13;14.77;;;;;;;8.45;100.00;101738.69;5084356;28;20036;-77
2023/02/18 06:40:05;;;;;;;32.63;15.13;;;;;;;8.47;100.00;101746.63;5085287;28;20099;-77
2023/02/18 06:42:30;;;;;;;31.60;16.08;;;;;;;8.49;100.00;101743.19;5082997;28;20028;-77
2023/02/18 06:44:55;;;;;;;32.25;16.25;;;;;;;8.46;100.00;101748.38;5086185;28;20035;-77
2023/02/18 06:47:21;;;;;;;33.08;16.38;;;;;;;8.42;100.00;101740.28;5082513;28;20036;-77
2023/02/18 06:49:46;;;;;;;31.52;16.30;;;;;;;8.40;100.00;101736.75;5085473;28;20032;-77
2023/02/18 06:52:12;;;;;;;31.65;17.45;;;;;;;8.40;100.00;101729.72;5083490;28;20435;-77
2023/02/18 06:54:37;;;;;;;31.52;17.08;;;;;;;8.38;100.00;101742.84;5083638;28;20086;-77
2023/02/18 06:57:02;;;;;;;33.10;19.02;;;;;;;8.36;100.00;101739.28;5084907;28;20028;-77
2023/02/18 06:59:28;;;;;;;31.30;17.23;;;;;;;8.36;100.00;101734.03;5082237;28;20029;-77
2023/02/18 07:01:53;;;;;;;31.58;16.52;;;;;;;8.34;100.00;101735.75;5085640;28;20032;-77
2023/02/18 07:04:18;;;;;;;30.23;16.02;;;;;;;8.32;100.00;101736.53;5082748;28;20491;-77
2023/02/18 07:06:44;;;;;;;28.75;15.45;;;;;;;8.28;100.00;101753.97;5084326;28;20036;-77
2023/02/18 07:09:09;;;;;;;28.23;14.68;;;;;;;8.31;100.00;101743.53;5083724;28;20020;-77
2023/02/18 07:11:34;;;;;;;30.38;17.23;;;;;;;8.27;100.00;101744.31;5083138;28;20020;-77
2023/02/18 07:14:00;;;;;;;31.13;18.45;;;;;;;8.28;100.00;101743.44;5085000;28;20401;-77
2023/02/18 07:16:25;;;;;;;30.67;17.48;;;;;;;8.26;100.00;101729.34;5081734;28;20059;-77
2023/02/18 07:18:50;;;;;;;31.52;17.63;;;;;;;8.24;100.00;101733.66;5083982;28;20035;-77
2023/02/18 07:21:16;;;;;;;32.83;18.05;;;;;;;8.24;100.00;101733.66;5082226;28;20032;-77
2023/02/18 07:23:41;;;;;;;30.35;17.02;;;;;;;8.20;100.00;101737.97;5083144;28;20024;-77
2023/02/18 07:26:10;;;;;;;30.88;18.25;;;;;;;8.18;100.00;101737.06;5083754;28;20035;-77
2023/02/18 07:28:36;;;;;;;32.25;19.60;;;;;;;8.11;100.00;101747.34;5082711;28;20028;-78
2023/02/18 07:31:02;;;;;;;32.85;19.80;;;;;;;8.06;100.00;101735.81;5084574;28;20043;-77
2023/02/18 07:33:28;;;;;;;32.40;18.95;;;;;;;8.06;100.00;101756.88;5081616;28;20025;-77
2023/02/18 07:35:58;;;;;;;31.35;18.63;;;;;;;7.96;100.00;101761.84;5084941;28;20032;-77
2023/02/18 07:38:25;;;;;;;32.03;17.95;;;;;;;7.95;100.00;101760.09;5080289;28;20029;-77
2023/02/18 07:40:51;;;;;;;29.92;15.32;;;;;;;7.95;100.00;101759.16;5083312;28;20390;-77
2023/02/18 07:43:17;;;;;;;29.85;16.42;;;;;;;7.88;100.00;101758.09;5082187;28;20033;-77
2023/02/18 07:45:42;;;;;;;28.38;14.05;;;;;;;7.92;100.00;101769.63;5083522;28;20034;-77
2023/02/18 07:48:08;;;;;;;28.70;13.98;;;;;;;7.85;100.00;101768.56;5083222;28;20024;-78
2023/02/18 07:50:35;;;;;;;27.48;12.88;;;;;;;7.83;100.00;101776.41;5082023;28;20096;-77
2023/02/18 07:53:02;;;;;;;27.88;12.75;;;;;;;7.84;100.00;101772.03;5078889;28;20491;-76
2023/02/18 07:58:11;;;;;;;26.20;13.55;;;;;;;7.88;100.00;101778.25;5091998;28;20046;-76
2023/02/18 08:00:37;;;;;;;27.63;12.95;;;;;;;7.87;100.00;101750.16;5091435;28;20416;-79
2023/02/18 08:03:02;;;;;;;27.33;13.13;;;;;;;7.90;100.00;101764.31;5092227;28;20064;-75
2023/02/18 08:05:28;;;;;;;29.75;14.60;;;;;;;7.92;100.00;101769.63;5092384;28;20401;-76
2023/02/18 08:07:53;;;;;;;27.88;12.57;;;;;;;7.94;100.00;101763.56;5092088;28;20024;-75
2023/02/18 08:10:19;;;;;;;28.83;14.52;;;;;;;8.02;100.00;101767.31;5091748;28;20109;-76
2023/02/18 08:12:44;;;;;;;27.98;15.02;;;;;;;8.09;100.00;101772.75;5091541;28;20603;-77
2023/02/18 08:15:09;;;;;;;27.95;13.40;;;;;;;8.14;100.00;101763.22;5083053;28;20060;-77
2023/02/18 08:17:35;;;;;;;27.42;13.05;;;;;;;8.20;100.00;101764.31;5084210;28;20036;-78
2023/02/18 08:20:00;;;;;;;26.98;12.30;;;;;;;8.25;100.00;101763.56;5083816;28;20028;-78
2023/02/18 08:22:26;;;;;;;26.73;12.40;;;;;;;8.42;100.00;101761.38;5081629;28;20051;-78
2023/02/18 08:24:54;;;;;;;26.00;12.13;;;;;;;8.49;100.00;101750.19;5083004;28;20108;-77
2023/02/18 08:27:19;;;;;;;29.20;12.55;;;;;;;8.51;100.00;101754.66;5082543;28;20497;-78
2023/02/18 08:29:44;;;;;;;29.70;12.80;;;;;;;8.53;100.00;101752.06;5081985;28;20052;-77
2023/02/18 08:32:10;;;;;;;27.60;12.07;;;;;;;8.59;100.00;101754.88;5083980;28;20478;-77
2023/02/18 08:34:35;;;;;;;26.42;11.68;;;;;;;8.64;100.00;101747.97;5083890;28;20463;-78
2023/02/18 08:37:01;;;;;;;27.02;10.98;;;;;;;8.73;100.00;101756.13;5088343;28;20387;-78
2023/02/18 08:39:26;;;;;;;25.67;11.02;;;;;;;8.79;100.00;101751.88;5084303;28;20028;-77
2023/02/18 08:41:51;;;;;;;27.00;10.63;;;;;;;8.78;100.00;101758.00;5086946;28;20028;-78
2023/02/18 08:44:17;;;;;;;26.13;9.52;;;;;;;8.77;100.00;101762.38;5087025;28;20025;-78
2023/02/18 08:46:42;;;;;;;24.65;8.80;;;;;;;8.72;100.00;101764.91;5085479;28;20039;-78
2023/02/18 08:49:08;;;;;;;25.17;9.25;;;;;;;8.72;100.00;101757.00;5087957;28;20591;-78
2023/02/18 08:51:34;;;;;;;24.30;8.10;;;;;;;8.71;100.00;101768.38;5084837;28;20057;-78
2023/02/18 08:53:59;;;;;;;24.60;8.90;;;;;;;8.73;100.00;101761.41;5087639;28;20032;-77
2023/02/18 08:56:25;;;;;;;25.23;9.00;;;;;;;8.70;100.00;101765.72;5085332;28;20444;-78
2023/02/18 08:58:50;;;;;;;23.23;8.68;;;;;;;8.68;100.00;101776.22;5086594;28;20029;-78
2023/02/18 09:01:16;;;;;;;26.42;8.90;;;;;;;8.68;100.00;101767.44;5086664;28;20115;-78
2023/02/18 09:03:41;;;;;;;24.02;8.55;;;;;;;8.69;100.00;101764.81;5085193;28;20024;-77
2023/02/18 09:06:07;;;;;;;24.45;8.38;;;;;;;8.76;100.00;101768.50;5088008;28;20475;-78
2023/02/18 09:08:33;;;;;;;24.20;8.50;;;;;;;8.76;100.00;101767.63;5084237;28;20062;-78
2023/02/18 09:11:00;;;;;;;22.83;8.35;;;;;;;8.76;100.00;101767.63;5087337;28;20048;-78
2023/02/18 09:13:26;;;;;;;24.63;7.78;;;;;;;8.74;100.00;101767.59;5085295;28;20027;-77
2023/02/18 09:16:00;;;;;;;22.48;8.00;;;;;;;8.72;100.00;101764.91;5086457;28;20025;-78
2023/02/18 09:18:26;;;;;;;22.90;7.95;;;;;;;8.64;100.00;101769.06;5084820;28;20028;-78
2023/02/18 09:20:56;;;;;;;23.70;7.82;;;;;;;8.61;100.00;101776.00;5086232;28;20066;-78
2023/02/18 09:23:21;;;;;;;22.27;7.25;;;;;;;8.52;100.00;101780.16;5085590;28;20025;-79
2023/02/18 09:25:47;;;;;;;22.55;7.13;;;;;;;8.27;100.00;101789.09;5085186;28;20037;-79
2023/02/18 09:28:12;;;;;;;24.17;7.63;;;;;;;8.09;100.00;101759.59;5087107;28;20028;-78
2023/02/18 09:30:38;;;;;;;24.40;7.38;;;;;;;7.98;100.00;101768.06;5083839;28;20036;-78
2023/02/18 09:33:04;;;;;;;22.80;7.47;;;;;;;7.93;100.00;101759.13;5087437;28;20039;-85
2023/02/18 09:35:29;;;;;;;21.92;6.97;;;;;;;7.94;100.00;101778.47;5084467;28;20024;-84
2023/02/18 09:37:54;;;;;;;24.17;7.28;;;;;;;7.95;100.00;101774.97;5086189;28;20403;-86
2023/02/18 09:40:26;;;;;;;23.17;7.43;;;;;;;7.99;100.00;101779.47;5085421;28;20111;-80
2023/02/18 09:42:55;;;;;;;21.67;6.82;;;;;;;8.06;100.00;101781.44;5085774;28;20043;-86
2023/02/18 09:45:21;;;;;;;22.55;6.65;;;;;;;8.10;100.00;101775.44;5086087;28;20024;-85
2023/02/18 09:47:46;;;;;;;22.80;6.28;;;;;;;8.19;100.00;101774.81;5085379;28;20090;-86
2023/02/18 09:50:17;;;;;;;22.48;6.53;;;;;;;8.28;100.00;101793.50;5083992;28;20033;-82
2023/02/18 09:52:42;;;;;;;19.48;5.32;;;;;;;8.38;100.00;101782.38;5086900;28;20051;-84
2023/02/18 09:55:38;;;;;;;21.83;5.85;;;;;;;8.49;100.00;101789.72;5083666;28;20028;-79
2023/02/18 09:58:13;;;;;;;23.23;5.80;;;;;;;8.52;100.00;101787.19;5079202;28;20044;-80
2023/02/18 10:00:52;;;;;;;22.67;5.90;;;;;;;8.57;100.00;101789.97;5083799;28;20483;-80
2023/02/18 10:03:21;;;;;;;21.20;5.85;;;;;;;8.58;100.00;101790.00;5086733;28;20024;-80
2023/02/18 10:05:58;;;;;;;20.90;5.63;;;;;;;8.59;100.00;101797.06;5081496;28;20391;-80
2023/02/18 10:08:27;;;;;;;20.65;5.68;;;;;;;8.64;100.00;101795.44;5085358;28;20460;-83
2023/02/18 10:10:53;;;;;;;21.20;5.50;;;;;;;8.65;100.00;101807.75;5086736;28;20050;-91
2023/02/18 10:13:25;;;;;;;18.88;5.43;;;;;;;8.68;100.00;101794.66;5085249;28;20024;-88
2023/02/18 10:15:51;;;;;;;21.75;5.55;;;;;;;8.71;100.00;101789.47;5088188;28;20031;-84
2023/02/18 10:18:27;;;;;;;20.38;5.40;;;;;;;8.80;100.00;101795.84;5093426;28;20078;-80
2023/02/18 10:20:58;;;;;;;19.42;5.68;;;;;;;8.79;100.00;101809.88;5091038;28;20028;-76
2023/02/18 10:23:24;;;;;;;19.85;5.78;;;;;;;8.83;100.00;101806.47;5094122;28;20016;-77
2023/02/18 10:25:50;;;;;;;22.63;6.20;;;;;;;8.86;100.00;101807.44;5094295;28;20033;-78
2023/02/18 10:28:21;;;;;;;21.08;6.32;;;;;;;8.89;100.00;101807.50;5090528;28;20028;-78
2023/02/18 10:31:00;;;;;;;21.70;6.25;;;;;;;8.89;100.00;101809.28;5093180;28;20024;-80
2023/02/18 10:33:29;;;;;;;20.88;6.30;;;;;;;8.93;100.00;101816.41;5089670;28;20443;-78
2023/02/18 10:35:54;;;;;;;22.50;6.75;;;;;;;8.97;100.00;101814.75;5090729;28;20031;-80
2023/02/18 10:38:38;;;;;;;20.52;6.35;;;;;;;8.99;100.00;101813.94;5093997;28;20036;-79
2023/02/18 10:41:17;;;;;;;21.30;6.80;;;;;;;8.90;100.00;101813.72;5092404;28;20024;-79
2023/02/18 10:43:53;;;;;;;21.33;6.78;;;;;;;8.94;100.00;101822.56;5093556;28;20036;-80
2023/02/18 10:46:58;;;;;;;22.88;6.95;;;;;;;8.93;100.00;101819.06;5093777;28;20360;-80
2023/02/18 10:49:42;;;;;;;21.58;6.35;;;;;;;9.02;100.00;101824.56;5087353;28;20044;-76
2023/02/18 10:52:14;;;;;;;21.40;6.63;;;;;;;9.06;100.00;101820.28;5090642;28;20043;-77
2023/02/18 10:54:58;;;;;;;21.98;6.88;;;;;;;9.14;100.00;101823.09;5093022;28;20059;-80
2023/02/18 10:57:24;;;;;;;21.77;6.13;;;;;;;9.18;100.00;101815.31;5084890;28;20115;-79
2023/02/18 10:59:57;;;;;;;21.20;6.28;;;;;;;9.27;100.00;101834.88;5084255;28;20119;-78
2023/02/18 11:02:25;;;;;;;21.23;6.72;;;;;;;9.15;100.00;101823.16;5082909;28;20032;-79
2023/02/18 11:04:50;;;;;;;21.42;6.45;;;;;;;9.15;100.00;101819.63;5083898;28;20472;-78
2023/02/18 11:07:28;;;;;;;21.13;6.40;;;;;;;9.21;100.00;101835.59;5083914;28;20035;-79
2023/02/18 11:09:56;;;;;;;22.77;6.50;;;;;;;9.24;100.00;101827.75;5084608;28;20024;-77
2023/02/18 11:12:39;;;;;;;21.35;6.57;;;;;;;9.32;100.00;101835.88;5083061;28;20152;-80
2023/02/18 11:15:26;;;;;;;21.40;6.75;;;;;;;9.43;100.00;101835.28;5081938;28;20028;-79
2023/02/18 11:17:54;;;;;;;20.42;6.22;;;;;;;9.42;100.00;101837.88;5099639;28;20483;-77
2023/02/18 11:20:34;;;;;;;20.83;7.00;;;;;;;9.47;100.00;101838.91;5083485;28;20406;-77
2023/02/18 11:23:05;;;;;;;19.65;6.50;;;;;;;9.46;100.00;101830.94;5085310;28;20032;-77
2023/02/18 11:25:33;;;;;;;20.05;6.28;;;;;;;9.42;100.00;101835.22;5081882;28;20067;-77